Map

Track Data

SID SEASON NUMBER BASIN SUBBASIN NAME ISO_TIME NATURE LAT LON WMO_WIND WMO_PRES WMO_AGENCY TRACK_TYPE DIST2LAND LANDFALL IFLAG USA_AGENCY USA_ATCF_ID USA_LAT USA_LON USA_RECORD USA_STATUS USA_WIND USA_PRES USA_SSHS USA_R34_NE USA_R34_SE USA_R34_SW USA_R34_NW USA_R50_NE USA_R50_SE USA_R50_SW USA_R50_NW USA_R64_NE USA_R64_SE USA_R64_SW USA_R64_NW USA_POCI USA_ROCI USA_RMW USA_EYE TOKYO_LAT TOKYO_LON TOKYO_GRADE TOKYO_WIND TOKYO_PRES TOKYO_R50_DIR TOKYO_R50_LONG TOKYO_R50_SHORT TOKYO_R30_DIR TOKYO_R30_LONG TOKYO_R30_SHORT TOKYO_LAND CMA_LAT CMA_LON CMA_CAT CMA_WIND CMA_PRES HKO_LAT HKO_LON HKO_CAT HKO_WIND HKO_PRES NEWDELHI_LAT NEWDELHI_LON NEWDELHI_GRADE NEWDELHI_WIND NEWDELHI_PRES NEWDELHI_CI NEWDELHI_DP NEWDELHI_POCI REUNION_LAT REUNION_LON REUNION_TYPE REUNION_WIND REUNION_PRES REUNION_TNUM REUNION_CI REUNION_RMW REUNION_R34_NE REUNION_R34_SE REUNION_R34_SW REUNION_R34_NW REUNION_R50_NE REUNION_R50_SE REUNION_R50_SW REUNION_R50_NW REUNION_R64_NE REUNION_R64_SE REUNION_R64_SW REUNION_R64_NW BOM_LAT BOM_LON BOM_TYPE BOM_WIND BOM_PRES BOM_TNUM BOM_CI BOM_RMW BOM_R34_NE BOM_R34_SE BOM_R34_SW BOM_R34_NW BOM_R50_NE BOM_R50_SE BOM_R50_SW BOM_R50_NW BOM_R64_NE BOM_R64_SE BOM_R64_SW BOM_R64_NW BOM_ROCI BOM_POCI BOM_EYE BOM_POS_METHOD BOM_PRES_METHOD NADI_LAT NADI_LON NADI_CAT NADI_WIND NADI_PRES WELLINGTON_LAT WELLINGTON_LON WELLINGTON_WIND WELLINGTON_PRES DS824_LAT DS824_LON DS824_STAGE DS824_WIND DS824_PRES TD9636_LAT TD9636_LON TD9636_STAGE TD9636_WIND TD9636_PRES TD9635_LAT TD9635_LON TD9635_WIND TD9635_PRES TD9635_ROCI NEUMANN_LAT NEUMANN_LON NEUMANN_CLASS NEUMANN_WIND NEUMANN_PRES MLC_LAT MLC_LON MLC_CLASS MLC_WIND MLC_PRES USA_GUST BOM_GUST BOM_GUST_PER REUNION_GUST REUNION_GUST_PER USA_SEAHGT USA_SEARAD_NE USA_SEARAD_SE USA_SEARAD_SW USA_SEARAD_NW STORM_SPEED STORM_DIR
1954248N20295 1954 57 NA NA EDNA 1954-09-05 00:00:00 TS 19.8000 -65.3000 25 hurdat_atl main 159 158 O_____________ hurdat_atl AL081954 19.8000 -65.3000 TD 25 -1 9 288
1954248N20295 1954 57 NA NA EDNA 1954-09-05 03:00:00 TS 19.9402 -65.7499 main 167 167 P_____________ AL081954 19.9402 -65.7499 TD 27 -1 9 290
1954248N20295 1954 57 NA NA EDNA 1954-09-05 06:00:00 TS 20.1000 -66.2000 30 hurdat_atl main 190 190 O_____________ hurdat_atl AL081954 20.1000 -66.2000 TD 30 -1 9 293
1954248N20295 1954 57 NA NA EDNA 1954-09-05 09:00:00 TS 20.2924 -66.6500 main 212 212 P_____________ AL081954 20.2924 -66.6500 TD 32 -1 9 295
1954248N20295 1954 57 NA NA EDNA 1954-09-05 12:00:00 TS 20.5000 -67.1000 35 hurdat_atl main 234 234 O_____________ hurdat_atl AL081954 20.5000 -67.1000 TS 35 0 9 296
1954248N20295 1954 57 NA NA EDNA 1954-09-05 15:00:00 TS 20.7074 -67.5500 main 236 222 P_____________ AL081954 20.7074 -67.5500 TS 37 0 9 295
1954248N20295 1954 57 NA NA EDNA 1954-09-05 18:00:00 TS 20.9000 -68.0000 40 hurdat_atl main 224 212 O_____________ hurdat_atl AL081954 20.9000 -68.0000 TS 40 0 9 293
1954248N20295 1954 57 NA NA EDNA 1954-09-05 21:00:00 TS 21.0649 -68.4576 main 217 210 P_____________ AL081954 21.0649 -68.4576 TS 42 0 9 290
1954248N20295 1954 57 NA NA EDNA 1954-09-06 00:00:00 TS 21.2000 -68.9000 45 hurdat_atl main 212 202 O_____________ hurdat_atl AL081954 21.2000 -68.9000 TS 45 0 8 287
1954248N20295 1954 57 NA NA EDNA 1954-09-06 03:00:00 TS 21.3149 -69.3151 main 203 200 P_____________ AL081954 21.3149 -69.3151 TS 45 0 8 285
1954248N20295 1954 57 NA NA EDNA 1954-09-06 06:00:00 TS 21.4000 -69.7000 45 hurdat_atl main 201 189 O_____________ hurdat_atl AL081954 21.4000 -69.7000 TS 45 0 7 281
1954248N20295 1954 57 NA NA EDNA 1954-09-06 09:00:00 TS 21.4499 -70.0651 main 186 186 P_____________ AL081954 21.4499 -70.0651 TS 47 0 7 279
1954248N20295 1954 57 NA NA EDNA 1954-09-06 12:00:00 TS 21.5000 -70.4000 50 hurdat_atl main 191 190 O_____________ hurdat_atl AL081954 21.5000 -70.4000 TS 50 0 6 283
1954248N20295 1954 57 NA NA EDNA 1954-09-06 15:00:00 TS 21.5849 -70.7150 main 201 201 P_____________ AL081954 21.5849 -70.7150 TS 50 0 6 290
1954248N20295 1954 57 NA NA EDNA 1954-09-06 18:00:00 TS 21.7000 -71.0000 50 hurdat_atl main 212 197 O_____________ hurdat_atl AL081954 21.7000 -71.0000 TS 50 0 6 297
1954248N20295 1954 57 NA NA EDNA 1954-09-06 21:00:00 TS 21.8349 -71.2501 main 188 178 P_____________ AL081954 21.8349 -71.2501 TS 52 0 6 303
1954248N20295 1954 57 NA NA EDNA 1954-09-07 00:00:00 TS 22.0000 -71.5000 55 hurdat_atl main 178 166 O_____________ hurdat_atl AL081954 22.0000 -71.5000 TS 55 0 6 305
1954248N20295 1954 57 NA NA EDNA 1954-09-07 03:00:00 TS 22.1849 -71.7851 main 166 159 P_____________ AL081954 22.1849 -71.7851 TS 57 0 7 306
1954248N20295 1954 57 NA NA EDNA 1954-09-07 06:00:00 TS 22.4000 -72.1000 60 hurdat_atl main 163 157 O_____________ hurdat_atl AL081954 22.4000 -72.1000 TS 60 0 8 306
1954248N20295 1954 57 NA NA EDNA 1954-09-07 09:00:00 TS 22.6275 -72.4427 main 168 164 P_____________ AL081954 22.6275 -72.4427 TS 62 0 8 308
1954248N20295 1954 57 NA NA EDNA 1954-09-07 12:00:00 TS 22.9000 -72.8000 65 995 hurdat_atl main 191 191 O_____________ hurdat_atl AL081954 22.9000 -72.8000 HU 65 995 1 9 314
1954248N20295 1954 57 NA NA EDNA 1954-09-07 15:00:00 TS 23.2424 -73.1426 main 223 223 P_____________ AL081954 23.2424 -73.1426 HU 67 993 1 10 317
1954248N20295 1954 57 NA NA EDNA 1954-09-07 18:00:00 TS 23.6000 -73.5000 70 992 hurdat_atl main 270 270 O_____________ hurdat_atl AL081954 23.6000 -73.5000 HU 70 992 1 10 313
1954248N20295 1954 57 NA NA EDNA 1954-09-07 21:00:00 TS 23.9076 -73.9150 main 310 310 P_____________ AL081954 23.9076 -73.9150 HU 72 991 1 9 309
1954248N20295 1954 57 NA NA EDNA 1954-09-08 00:00:00 TS 24.2000 -74.3000 75 990 hurdat_atl main 345 313 O_____________ hurdat_atl AL081954 24.2000 -74.3000 HU 75 990 1 8 314
1954248N20295 1954 57 NA NA EDNA 1954-09-08 03:00:00 TS 24.4924 -74.5803 main 313 293 P_____________ AL081954 24.4924 -74.5803 HU 77 987 1 8 323
1954248N20295 1954 57 NA NA EDNA 1954-09-08 06:00:00 TS 24.8000 -74.8000 80 hurdat_atl main 294 278 I_____________ hurdat_atl AL081954 24.8000 -74.8000 HU 80 984 1 8 328
1954248N20295 1954 57 NA NA EDNA 1954-09-08 09:00:00 TS 25.1350 -75.0225 main 280 271 P_____________ AL081954 25.1350 -75.0225 HU 82 981 1 8 333
1954248N20295 1954 57 NA NA EDNA 1954-09-08 12:00:00 TS 25.5000 -75.2000 85 979 hurdat_atl main 275 275 O_____________ hurdat_atl AL081954 25.5000 -75.2000 HU 85 979 2 8 341
1954248N20295 1954 57 NA NA EDNA 1954-09-08 15:00:00 TS 25.9074 -75.3151 main 283 283 P_____________ AL081954 25.9074 -75.3151 HU 90 973 2 8 347
1954248N20295 1954 57 NA NA EDNA 1954-09-08 18:00:00 TS 26.3000 -75.4000 95 968 hurdat_atl main 292 292 O_____________ hurdat_atl AL081954 26.3000 -75.4000 HU 95 968 2 7 348
1954248N20295 1954 57 NA NA EDNA 1954-09-08 21:00:00 TS 26.6074 -75.4852 main 300 300 P_____________ AL081954 26.6074 -75.4852 HU 95 2 6 344
1954248N20295 1954 57 NA NA EDNA 1954-09-09 00:00:00 TS 26.9000 -75.6000 95 hurdat_atl main 312 312 O_____________ hurdat_atl AL081954 26.9000 -75.6000 HU 95 2 7 337
1954248N20295 1954 57 NA NA EDNA 1954-09-09 03:00:00 TS 27.2500 -75.7849 main 329 329 P_____________ AL081954 27.2500 -75.7849 HU 97 3 8 333
1954248N20295 1954 57 NA NA EDNA 1954-09-09 06:00:00 TS 27.6000 -76.0000 100 hurdat_atl main 342 342 O_____________ hurdat_atl AL081954 27.6000 -76.0000 HU 100 3 8 330
1954248N20295 1954 57 NA NA EDNA 1954-09-09 09:00:00 TS 27.9075 -76.2225 main 360 360 P_____________ AL081954 27.9075 -76.2225 HU 102 3 7 329
1954248N20295 1954 57 NA NA EDNA 1954-09-09 12:00:00 TS 28.2000 -76.4000 105 hurdat_atl main 380 380 O_____________ hurdat_atl AL081954 28.2000 -76.4000 HU 105 3 6 337
1954248N20295 1954 57 NA NA EDNA 1954-09-09 15:00:00 TS 28.4849 -76.4950 main 390 390 P_____________ AL081954 28.4849 -76.4950 HU 107 3 6 352
1954248N20295 1954 57 NA NA EDNA 1954-09-09 18:00:00 TS 28.8000 -76.5000 110 945 hurdat_atl main 391 391 O_____________ hurdat_atl AL081954 28.8000 -76.5000 HU 110 945 3 7 5
1954248N20295 1954 57 NA NA EDNA 1954-09-09 21:00:00 TS 29.1775 -76.4227 main 406 406 P_____________ AL081954 29.1775 -76.4227 HU 110 3 8 12
1954248N20295 1954 57 NA NA EDNA 1954-09-10 00:00:00 TS 29.6000 -76.3000 110 hurdat_atl main 425 425 O_____________ hurdat_atl AL081954 29.6000 -76.3000 HU 110 3 9 13
1954248N20295 1954 57 NA NA EDNA 1954-09-10 03:00:00 TS 30.0350 -76.1999 main 448 418 P_____________ AL081954 30.0350 -76.1999 HU 110 3 9 11
1954248N20295 1954 57 NA NA EDNA 1954-09-10 06:00:00 TS 30.5000 -76.1000 110 hurdat_atl main 418 383 O_____________ hurdat_atl AL081954 30.5000 -76.1000 HU 110 3 10 9
1954248N20295 1954 57 NA NA EDNA 1954-09-10 09:00:00 TS 30.9774 -76.0146 main 373 331 P_____________ AL081954 30.9774 -76.0146 HU 110 3 10 10
1954248N20295 1954 57 NA NA EDNA 1954-09-10 12:00:00 TS 31.5000 -75.9000 110 hurdat_atl main 331 294 O_____________ hurdat_atl AL081954 31.5000 -75.9000 HU 110 3 11 12
1954248N20295 1954 57 NA NA EDNA 1954-09-10 15:00:00 TS 32.0774 -75.7370 main 293 241 P_____________ AL081954 32.0774 -75.7370 HU 110 3 13 16
1954248N20295 1954 57 NA NA EDNA 1954-09-10 18:00:00 TS 32.7000 -75.5000 110 hurdat_atl main 241 196 O_____________ hurdat_atl AL081954 32.7000 -75.5000 HU 110 3 13 21
1954248N20295 1954 57 NA NA EDNA 1954-09-10 21:00:00 TS 33.2899 -75.1936 main 196 169 P_____________ AL081954 33.2899 -75.1936 HU 110 3 14 24
1954248N20295 1954 57 NA NA EDNA 1954-09-11 00:00:00 TS 34.0000 -74.8000 110 943 hurdat_atl main 170 141 O_____________ hurdat_atl AL081954 34.0000 -74.8000 HU 110 943 3 18 23
1954248N20295 1954 57 NA NA EDNA 1954-09-11 03:00:00 TS 34.9398 -74.3442 main 147 129 P_____________ AL081954 34.9398 -74.3442 HU 107 3 22 22
1954248N20295 1954 57 NA NA EDNA 1954-09-11 06:00:00 TS 36.0000 -73.8000 105 hurdat_atl main 154 154 O_____________ hurdat_atl AL081954 36.0000 -73.8000 HU 105 3 22 24
1954248N20295 1954 57 NA NA EDNA 1954-09-11 09:00:00 TS 36.9745 -73.2052 main 220 212 P_____________ AL081954 36.9745 -73.2052 HU 102 3 23 26
1954248N20295 1954 57 NA NA EDNA 1954-09-11 12:00:00 TS 38.1000 -72.5000 100 hurdat_atl main 220 169 O_____________ hurdat_atl AL081954 38.1000 -72.5000 HU 100 3 28 25
1954248N20295 1954 57 NA NA EDNA 1954-09-11 15:00:00 TS 39.4601 -71.7143 main 163 56 P_____________ AL081954 39.4601 -71.7143 HU 97 3 33 25
1954248N20295 1954 57 NA NA EDNA 1954-09-11 18:00:00 TS 41.1000 -70.7000 95 950 hurdat_atl main 44 19 O_____________ hurdat_atl AL081954 41.1000 -70.7000 HU 95 950 2 37 25
1954248N20295 1954 57 NA NA EDNA 1954-09-11 18:30:00 TS 41.4000 -70.5000 95 950 hurdat_atl main 19 0 O_____________ hurdat_atl AL081954 41.4000 -70.5000 L HU 95 950 2 40 27
1954248N20295 1954 57 NA NA EDNA 1954-09-11 19:00:00 TS 41.7000 -70.3000 95 952 hurdat_atl main 0 0 O_____________ hurdat_atl AL081954 41.7000 -70.3000 L HU 95 952 2 35 31
1954248N20295 1954 57 NA NA EDNA 1954-09-11 19:30:00 TS 41.9000 -70.1000 90 954 hurdat_atl main 13 13 O_____________ hurdat_atl AL081954 41.9000 -70.1000 L HU 90 954 2 29 38
1954248N20295 1954 57 NA NA EDNA 1954-09-11 21:00:00 TS 42.4625 -69.4889 main 88 60 P_____________ AL081954 42.4625 -69.4889 HU 83 2 32 38
1954248N20295 1954 57 NA NA EDNA 1954-09-12 00:00:00 ET 43.8000 -68.1000 70 hurdat_atl main 54 0 O_____________ hurdat_atl AL081954 43.8000 -68.1000 EX 70 -4 44 33
1954248N20295 1954 57 NA NA EDNA 1954-09-12 03:00:00 ET 46.1366 -66.1561 main 0 0 P_____________ AL081954 46.1366 -66.1561 EX 65 -4 57 30
1954248N20295 1954 57 NA NA EDNA 1954-09-12 06:00:00 ET 48.7000 -64.0000 60 hurdat_atl main 14 0 O_____________ hurdat_atl AL081954 48.7000 -64.0000 EX 60 -4 53 30
1954248N20295 1954 57 NA NA EDNA 1954-09-12 09:00:00 ET 50.7562 -62.1220 main 0 0 P_____________ AL081954 50.7562 -62.1220 EX 60 -4 43 31
1954248N20295 1954 57 NA NA EDNA 1954-09-12 12:00:00 ET 52.4000 -60.5000 60 hurdat_atl main 0 0 O_____________ hurdat_atl AL081954 52.4000 -60.5000 EX 60 -4 34 33
1954248N20295 1954 57 NA NA EDNA 1954-09-12 15:00:00 ET 53.5894 -59.0828 main 0 0 P_____________ AL081954 53.5894 -59.0828 EX 60 -4 26 35
1954248N20295 1954 57 NA NA EDNA 1954-09-12 18:00:00 ET 54.5000 -58.0000 60 hurdat_atl main 0 0 O_____________ hurdat_atl AL081954 54.5000 -58.0000 EX 60 -4 22 32
1954248N20295 1954 57 NA NA EDNA 1954-09-12 21:00:00 ET 55.4357 -57.1306 main 87 87 P_____________ AL081954 55.4357 -57.1306 EX 60 -4 20 25
1954248N20295 1954 57 NA NA EDNA 1954-09-13 00:00:00 ET 56.3000 -56.5000 60 hurdat_atl main 190 190 O_____________ hurdat_atl AL081954 56.3000 -56.5000 EX 60 -4 18 21
1954248N20295 1954 57 NA NA EDNA 1954-09-13 03:00:00 ET 57.1517 -55.9587 main 293 293 P_____________ AL081954 57.1517 -55.9587 EX 60 -4 17 19
1954248N20295 1954 57 NA NA EDNA 1954-09-13 06:00:00 ET 57.9000 -55.5000 60 hurdat_atl main 358 358 O_____________ hurdat_atl AL081954 57.9000 -55.5000 EX 60 -4 15 20
1954248N20295 1954 57 NA NA EDNA 1954-09-13 09:00:00 ET 58.5317 -55.0353 main 406 395 P_____________ AL081954 58.5317 -55.0353 EX 60 -4 12 25
1954248N20295 1954 57 NA NA EDNA 1954-09-13 12:00:00 ET 59.0000 -54.5000 60 hurdat_atl main 395 347 O_____________ hurdat_atl AL081954 59.0000 -54.5000 EX 60 -4 10 38
1954248N20295 1954 57 NA NA EDNA 1954-09-13 15:00:00 ET 59.3394 -53.8254 main 343 299 P_____________ AL081954 59.3394 -53.8254 EX 60 -4 9 57
1954248N20295 1954 57 NA NA EDNA 1954-09-13 18:00:00 ET 59.5000 -53.0000 60 hurdat_atl main 295 261 O_____________ hurdat_atl AL081954 59.5000 -53.0000 EX 60 -4 9 79
1954248N20295 1954 57 NA NA EDNA 1954-09-13 21:00:00 ET 59.5173 -52.0439 main 257 230 P_____________ AL081954 59.5173 -52.0439 EX 60 -4 10 96
1954248N20295 1954 57 NA NA EDNA 1954-09-14 00:00:00 ET 59.4000 -51.0000 60 hurdat_atl main 226 202 O_____________ hurdat_atl AL081954 59.4000 -51.0000 EX 60 -4 11 106
1954248N20295 1954 57 NA NA EDNA 1954-09-14 03:00:00 ET 59.2164 -49.9454 main 205 199 P_____________ AL081954 59.2164 -49.9454 EX 55 -4 11 110
1954248N20295 1954 57 NA NA EDNA 1954-09-14 06:00:00 ET 59.0000 -48.9000 50 hurdat_atl main 205 O_____________ hurdat_atl AL081954 59.0000 -48.9000 EX 50 -4 12 112

About IBTrACS Database

This database is a web-friendly format of International Best Track Archive for Climate Stewardship (IBTrACS), a global best track data archive curated by NOAA dating back to 1842.

Updated: 2021-12-03